Time;durP1;ratioP1;P1;durP2;ratioP2;P2;SDS_P1;SDS_P2;PMS_P1;PMS_P2;Temp;Humidity;BMP_temperature;BMP_pressure;BME280_temperature;BME280_humidity;BME280_pressure;Samples;Min_cycle;Max_cycle;Signal;HPM_P1;HPM_P2
2023/10/14 00:02:07;;;;;;;2.08;0.80;;;;;;;;;;5049626;28;20045;-74
2023/10/14 00:04:33;;;;;;;3.88;0.80;;;;;;;;;;5045960;28;20473;-74
2023/10/14 00:07:07;;;;;;;3.25;0.80;;;;;;;;;;5037706;28;20056;-74
2023/10/14 00:09:42;;;;;;;4.88;0.88;;;;;;;;;;5028996;28;20048;-74
2023/10/14 00:12:13;;;;;;;2.63;1.13;;;;;;;;;;5070488;28;20512;-75
2023/10/14 00:14:46;;;;;;;5.70;0.80;;;;;;;;;;5063232;28;20056;-74
2023/10/14 00:17:18;;;;;;;3.63;0.85;;;;;;;;;;5048587;28;20135;-74
2023/10/14 00:19:49;;;;;;;5.95;1.05;;;;;;;;;;5051126;28;20127;-74
2023/10/14 00:22:18;;;;;;;3.60;0.95;;;;;;;;;;5043008;28;20133;-73
2023/10/14 00:24:48;;;;;;;2.25;0.70;;;;;;;;;;5065791;28;20120;-74
2023/10/14 00:27:15;;;;;;;5.05;0.75;;;;;;;;;;5072077;28;20048;-73
2023/10/14 00:29:41;;;;;;;4.97;0.80;;;;;;;;;;5047154;28;20086;-73
2023/10/14 00:32:08;;;;;;;3.35;0.90;;;;;;;;;;5050545;28;20044;-73
2023/10/14 00:34:34;;;;;;;1.88;0.50;;;;;;;;;;5073297;28;20060;-73
2023/10/14 00:37:01;;;;;;;3.47;0.73;;;;;;;;;;5062518;28;20102;-73
2023/10/14 00:39:27;;;;;;;2.75;0.80;;;;;;;;;;5067661;28;20052;-73
2023/10/14 00:41:55;;;;;;;4.32;1.00;;;;;;;;;;5068845;28;20053;-73
2023/10/14 00:44:25;;;;;;;2.80;0.88;;;;;;;;;;5037229;28;20144;-74
2023/10/14 00:46:55;;;;;;;6.57;1.25;;;;;;;;;;5064339;28;20056;-74
2023/10/14 00:49:22;;;;;;;2.60;0.80;;;;;;;;;;5052998;28;20105;-73
2023/10/14 00:51:53;;;;;;;3.97;0.80;;;;;;;;;;5044772;28;20080;-73
2023/10/14 00:59:43;;;;;;;2.83;1.08;;;;;;;;;;5065881;28;20522;-75
2023/10/14 01:02:10;;;;;;;6.20;1.35;;;;;;;;;;5056762;28;20048;-73
2023/10/14 01:04:38;;;;;;;2.40;0.85;;;;;;;;;;5049869;28;20044;-73
2023/10/14 01:07:06;;;;;;;2.72;1.08;;;;;;;;;;5068307;28;20443;-74
2023/10/14 01:09:48;;;;;;;3.40;0.90;;;;;;;;;;5042812;28;20048;-74
2023/10/14 01:15:10;;;;;;;5.00;0.93;;;;;;;;;;5047748;28;20490;-73
2023/10/14 01:17:37;;;;;;;2.90;0.80;;;;;;;;;;5063137;28;20508;-73
2023/10/14 01:22:43;;;;;;;5.95;0.93;;;;;;;;;;5068521;28;20041;-73
2023/10/14 01:25:14;;;;;;;3.40;0.80;;;;;;;;;;5052835;28;20470;-74
2023/10/14 01:27:44;;;;;;;3.00;0.70;;;;;;;;;;5050509;28;20139;-72
2023/10/14 01:30:19;;;;;;;3.28;0.80;;;;;;;;;;5041991;28;20051;-74
2023/10/14 01:35:26;;;;;;;5.35;1.10;;;;;;;;;;5075191;28;20090;-74
2023/10/14 01:37:53;;;;;;;7.13;1.50;;;;;;;;;;5069523;28;20133;-73
2023/10/14 01:42:57;;;;;;;7.22;1.17;;;;;;;;;;5053294;28;20347;-73
2023/10/14 01:45:27;;;;;;;4.10;1.00;;;;;;;;;;5071664;28;20048;-73
2023/10/14 01:48:11;;;;;;;8.82;1.50;;;;;;;;;;5038520;28;20076;-74
2023/10/14 01:50:38;;;;;;;5.90;1.30;;;;;;;;;;5042507;28;20478;-74
2023/10/14 01:53:11;;;;;;;6.07;1.00;;;;;;;;;;5063443;28;20252;-75
2023/10/14 01:55:41;;;;;;;6.30;1.30;;;;;;;;;;5062186;28;20052;-74
2023/10/14 01:58:10;;;;;;;10.25;1.40;;;;;;;;;;5041083;28;20157;-74
2023/10/14 02:00:39;;;;;;;5.18;1.25;;;;;;;;;;5059795;28;20045;-72
2023/10/14 02:03:09;;;;;;;7.97;1.73;;;;;;;;;;5064495;28;20063;-74
2023/10/14 02:05:42;;;;;;;6.20;1.27;;;;;;;;;;5052974;28;20040;-72
2023/10/14 02:08:15;;;;;;;10.82;1.58;;;;;;;;;;5040058;28;20374;-73
2023/10/14 02:10:52;;;;;;;5.20;1.13;;;;;;;;;;5051644;28;20254;-73
2023/10/14 02:13:19;;;;;;;8.68;1.45;;;;;;;;;;5048732;28;20121;-73
2023/10/14 02:15:46;;;;;;;4.82;1.23;;;;;;;;;;5073244;28;20060;-73
2023/10/14 02:18:13;;;;;;;10.02;1.77;;;;;;;;;;5065491;28;20075;-74
2023/10/14 02:20:56;;;;;;;7.93;1.05;;;;;;;;;;5048227;28;20052;-74
2023/10/14 02:23:26;;;;;;;6.68;1.23;;;;;;;;;;5034212;28;20110;-73
2023/10/14 02:25:56;;;;;;;7.25;1.45;;;;;;;;;;5043806;28;20048;-73
2023/10/14 02:28:23;;;;;;;9.45;1.27;;;;;;;;;;5069455;28;20497;-73
2023/10/14 02:30:52;;;;;;;6.68;1.17;;;;;;;;;;5034263;28;20056;-74
2023/10/14 02:33:22;;;;;;;9.65;1.42;;;;;;;;;;5060956;28;20111;-73
2023/10/14 02:35:49;;;;;;;7.40;1.52;;;;;;;;;;5062392;28;20051;-75
2023/10/14 02:38:17;;;;;;;11.38;1.67;;;;;;;;;;5049231;28;20056;-73
2023/10/14 02:40:44;;;;;;;9.95;1.50;;;;;;;;;;5052571;28;20056;-73
2023/10/14 02:43:16;;;;;;;10.25;1.52;;;;;;;;;;5046994;28;20084;-73
2023/10/14 02:45:45;;;;;;;8.63;1.50;;;;;;;;;;5037291;28;20044;-72
2023/10/14 02:48:12;;;;;;;11.15;1.33;;;;;;;;;;5065615;28;20121;-73
2023/10/14 02:50:38;;;;;;;11.32;1.77;;;;;;;;;;5045757;28;20444;-72
2023/10/14 02:53:08;;;;;;;10.18;1.60;;;;;;;;;;5068724;28;20139;-74
2023/10/14 02:55:53;;;;;;;5.35;1.50;;;;;;;;;;5053021;28;20041;-72
2023/10/14 02:58:22;;;;;;;9.23;1.33;;;;;;;;;;5056174;28;20055;-72
2023/10/14 03:00:49;;;;;;;7.50;1.48;;;;;;;;;;5048656;28;20047;-72
2023/10/14 03:03:19;;;;;;;5.75;1.35;;;;;;;;;;5058085;28;20082;-72
2023/10/14 03:05:52;;;;;;;7.68;1.52;;;;;;;;;;5057912;28;20123;-73
2023/10/14 03:08:19;;;;;;;9.48;1.70;;;;;;;;;;5039988;28;20532;-73
2023/10/14 03:10:47;;;;;;;11.48;1.40;;;;;;;;;;5066855;28;20059;-73
2023/10/14 03:13:13;;;;;;;10.47;1.77;;;;;;;;;;5058596;28;20048;-73
2023/10/14 03:15:44;;;;;;;8.43;1.40;;;;;;;;;;5046774;28;20412;-72
2023/10/14 03:18:18;;;;;;;11.63;1.48;;;;;;;;;;5043017;28;20279;-72
2023/10/14 03:23:23;;;;;;;14.00;1.90;;;;;;;;;;5064081;28;20051;-72
2023/10/14 03:25:51;;;;;;;7.25;1.40;;;;;;;;;;5059873;28;20044;-73
2023/10/14 03:28:19;;;;;;;7.97;1.60;;;;;;;;;;5077537;28;20064;-73
2023/10/14 03:30:52;;;;;;;11.32;1.80;;;;;;;;;;5053017;28;20044;-74
2023/10/14 03:33:20;;;;;;;7.22;1.35;;;;;;;;;;5049820;28;20055;-73
2023/10/14 03:35:57;;;;;;;13.43;1.57;;;;;;;;;;5071335;28;20064;-72
2023/10/14 03:41:03;;;;;;;10.93;2.03;;;;;;;;;;5094696;28;20064;-73
2023/10/14 03:43:31;;;;;;;12.43;1.88;;;;;;;;;;5059335;28;20056;-72
2023/10/14 03:46:03;;;;;;;9.20;1.77;;;;;;;;;;5053781;28;20098;-74
2023/10/14 03:48:36;;;;;;;10.27;1.75;;;;;;;;;;5053317;28;20048;-74
2023/10/14 03:51:03;;;;;;;5.28;1.30;;;;;;;;;;5082189;28;20076;-73
2023/10/14 03:53:32;;;;;;;10.05;1.60;;;;;;;;;;5076737;28;20052;-73
2023/10/14 03:56:00;;;;;;;10.88;1.67;;;;;;;;;;5061536;28;20110;-72
2023/10/14 03:58:30;;;;;;;6.60;1.20;;;;;;;;;;5052562;28;20568;-72
2023/10/14 04:01:02;;;;;;;12.43;1.60;;;;;;;;;;5063263;28;20040;-71
2023/10/14 04:03:41;;;;;;;13.48;1.33;;;;;;;;;;5059558;28;20094;-72
2023/10/14 04:06:15;;;;;;;8.63;1.67;;;;;;;;;;5063904;28;20049;-73
2023/10/14 04:08:50;;;;;;;6.65;0.98;;;;;;;;;;5040388;28;20056;-72
2023/10/14 04:11:28;;;;;;;12.77;1.67;;;;;;;;;;5050248;28;20614;-72
2023/10/14 04:14:02;;;;;;;8.55;1.23;;;;;;;;;;5053072;28;20105;-71
2023/10/14 04:16:36;;;;;;;9.98;1.40;;;;;;;;;;5064153;28;20505;-72
2023/10/14 04:19:28;;;;;;;8.55;1.45;;;;;;;;;;5055577;28;20051;-74
2023/10/14 04:22:00;;;;;;;7.80;1.42;;;;;;;;;;5074632;28;20048;-75
2023/10/14 04:30:51;;;;;;;7.88;1.67;;;;;;;;;;4995367;28;20467;-75
2023/10/14 04:35:24;;;;;;;9.40;1.45;;;;;;;;;;5032647;28;20056;-74
2023/10/14 04:37:55;;;;;;;9.30;1.60;;;;;;;;;;5076128;28;20055;-73
2023/10/14 04:43:18;;;;;;;10.82;1.42;;;;;;;;;;5065789;28;20486;-73
2023/10/14 04:45:55;;;;;;;11.88;1.90;;;;;;;;;;5049936;28;20055;-73
2023/10/14 04:48:35;;;;;;;4.93;1.15;;;;;;;;;;5050552;28;20417;-74
2023/10/14 04:51:08;;;;;;;15.07;1.95;;;;;;;;;;5077862;28;20052;-73
2023/10/14 04:53:34;;;;;;;8.43;1.75;;;;;;;;;;5052299;28;20049;-73
2023/10/14 04:56:08;;;;;;;10.95;1.40;;;;;;;;;;5058665;28;20056;-74
2023/10/14 04:58:34;;;;;;;7.03;1.13;;;;;;;;;;5036348;28;20044;-72
2023/10/14 05:01:01;;;;;;;10.38;1.50;;;;;;;;;;5049871;28;20133;-73
2023/10/14 05:03:29;;;;;;;7.72;1.30;;;;;;;;;;5046437;28;20048;-74
2023/10/14 05:05:56;;;;;;;14.10;1.90;;;;;;;;;;5073981;28;20055;-74
2023/10/14 05:08:24;;;;;;;8.10;1.52;;;;;;;;;;5052644;28;20068;-73
2023/10/14 05:10:51;;;;;;;10.18;1.70;;;;;;;;;;5042783;28;20051;-74
2023/10/14 05:13:33;;;;;;;8.13;1.63;;;;;;;;;;5051339;28;20177;-73
2023/10/14 05:16:15;;;;;;;8.68;1.45;;;;;;;;;;5061865;28;20058;-73
2023/10/14 05:18:48;;;;;;;10.35;1.50;;;;;;;;;;5058690;28;20820;-73
2023/10/14 05:21:35;;;;;;;11.70;1.70;;;;;;;;;;5067385;28;20048;-73
2023/10/14 05:24:03;;;;;;;12.07;1.50;;;;;;;;;;5065324;28;20071;-75
2023/10/14 05:26:35;;;;;;;10.00;1.65;;;;;;;;;;5039622;28;20052;-73
2023/10/14 05:29:11;;;;;;;11.38;1.73;;;;;;;;;;5059605;28;20444;-74
2023/10/14 05:31:37;;;;;;;10.27;1.60;;;;;;;;;;5067119;28;20511;-74
2023/10/14 05:34:05;;;;;;;6.70;1.30;;;;;;;;;;5076162;28;20105;-73
2023/10/14 05:36:34;;;;;;;11.35;1.50;;;;;;;;;;5052782;28;20481;-74
2023/10/14 05:39:02;;;;;;;5.05;0.95;;;;;;;;;;5047852;28;20106;-72
2023/10/14 05:41:29;;;;;;;10.60;1.77;;;;;;;;;;5071198;28;20531;-72
2023/10/14 05:43:56;;;;;;;6.72;1.17;;;;;;;;;;5052724;28;20109;-72
2023/10/14 05:46:23;;;;;;;11.05;1.40;;;;;;;;;;5076359;28;20112;-72
2023/10/14 05:48:53;;;;;;;13.65;1.70;;;;;;;;;;5075225;28;20044;-72
2023/10/14 05:51:20;;;;;;;16.50;1.88;;;;;;;;;;5059553;28;20041;-73
2023/10/14 05:53:46;;;;;;;9.55;1.23;;;;;;;;;;5064990;28;20047;-72
2023/10/14 05:56:15;;;;;;;;;;;;;;;;;;5048111;28;20048;-72
2023/10/14 05:58:42;;;;;;;9.38;1.52;;;;;;;;;;5069680;28;19925;-72
2023/10/14 06:01:13;;;;;;;9.90;1.40;;;;;;;;;;5060640;28;20105;-73
2023/10/14 06:03:43;;;;;;;9.40;2.10;;;;;;;;;;5050183;28;20341;-71
2023/10/14 06:06:10;;;;;;;11.93;1.65;;;;;;;;;;5061181;28;20078;-72
2023/10/14 06:08:37;;;;;;;11.27;1.67;;;;;;;;;;5059747;28;20425;-72
2023/10/14 06:11:05;;;;;;;12.73;1.55;;;;;;;;;;5028915;28;20114;-71
2023/10/14 06:13:35;;;;;;;12.85;1.42;;;;;;;;;;5035324;28;20044;-71
2023/10/14 06:16:09;;;;;;;10.88;1.38;;;;;;;;;;5061193;28;20052;-71
2023/10/14 06:18:40;;;;;;;13.18;1.80;;;;;;;;;;5024397;28;20067;-72
2023/10/14 06:21:08;;;;;;;7.97;1.85;;;;;;;;;;5044546;28;20502;-71
2023/10/14 06:23:35;;;;;;;8.82;1.48;;;;;;;;;;5043975;28;20063;-73
2023/10/14 06:26:05;;;;;;;11.70;1.30;;;;;;;;;;5067132;28;20045;-71
2023/10/14 06:28:32;;;;;;;10.00;1.55;;;;;;;;;;5040974;28;20121;-75
2023/10/14 06:31:04;;;;;;;9.15;1.40;;;;;;;;;;5042820;28;20133;-73
2023/10/14 06:33:30;;;;;;;9.38;1.63;;;;;;;;;;5047019;28;20139;-73
2023/10/14 06:36:03;;;;;;;14.90;1.92;;;;;;;;;;5058767;28;20044;-71
2023/10/14 06:38:33;;;;;;;10.13;1.52;;;;;;;;;;5069783;28;20044;-72
2023/10/14 06:41:05;;;;;;;10.73;1.92;;;;;;;;;;5046197;28;20048;-72
2023/10/14 06:43:33;;;;;;;9.73;1.73;;;;;;;;;;5065278;28;20063;-72
2023/10/14 06:46:04;;;;;;;15.75;2.20;;;;;;;;;;5065000;28;20047;-72
2023/10/14 06:48:32;;;;;;;8.10;1.67;;;;;;;;;;5026531;28;20144;-72
2023/10/14 06:50:59;;;;;;;9.65;1.73;;;;;;;;;;5064311;28;20085;-73
2023/10/14 06:53:29;;;;;;;10.15;1.50;;;;;;;;;;5057650;28;20497;-72
2023/10/14 06:55:56;;;;;;;9.15;1.40;;;;;;;;;;5059902;28;20059;-73
2023/10/14 06:58:22;;;;;;;14.43;1.48;;;;;;;;;;5055906;28;20068;-72
2023/10/14 07:00:49;;;;;;;10.90;1.90;;;;;;;;;;5041812;28;20049;-72
2023/10/14 07:03:16;;;;;;;16.33;2.38;;;;;;;;;;5039289;28;20100;-72
2023/10/14 07:05:56;;;;;;;13.80;1.92;;;;;;;;;;5062327;28;20060;-73
2023/10/14 07:08:24;;;;;;;9.25;2.08;;;;;;;;;;5057334;28;20056;-72
2023/10/14 07:10:51;;;;;;;13.93;2.00;;;;;;;;;;5072568;28;20153;-72
2023/10/14 07:13:20;;;;;;;13.00;1.88;;;;;;;;;;5044859;28;20063;-72
2023/10/14 07:15:48;;;;;;;11.07;1.88;;;;;;;;;;5040819;28;20054;-72
2023/10/14 07:18:18;;;;;;;14.63;1.97;;;;;;;;;;5071808;28;20090;-72
2023/10/14 07:20:45;;;;;;;11.13;1.83;;;;;;;;;;5071190;28;20417;-72
2023/10/14 07:23:11;;;;;;;9.07;1.77;;;;;;;;;;5066769;28;20074;-72
2023/10/14 07:25:41;;;;;;;9.85;1.90;;;;;;;;;;5077553;28;20119;-72
2023/10/14 07:28:14;;;;;;;16.73;2.17;;;;;;;;;;5052670;28;20501;-72
2023/10/14 07:30:48;;;;;;;12.13;1.70;;;;;;;;;;5037336;28;20120;-72
2023/10/14 07:33:16;;;;;;;10.95;1.73;;;;;;;;;;5038707;28;20044;-72
2023/10/14 07:35:43;;;;;;;9.48;1.35;;;;;;;;;;5062558;28;20052;-72
2023/10/14 07:38:10;;;;;;;9.00;1.70;;;;;;;;;;5064886;28;20041;-74
2023/10/14 07:40:38;;;;;;;9.90;1.80;;;;;;;;;;5055769;28;20040;-72
2023/10/14 07:43:07;;;;;;;10.90;1.95;;;;;;;;;;5043198;28;20208;-72
2023/10/14 07:45:33;;;;;;;;;;;;;;;;;;5047537;28;20053;-72
2023/10/14 07:48:08;;;;;;;15.95;2.15;;;;;;;;;;5069825;28;19970;-72
2023/10/14 07:50:39;;;;;;;9.90;2.00;;;;;;;;;;5045414;28;20080;-72
2023/10/14 07:53:08;;;;;;;14.60;1.80;;;;;;;;;;5055480;28;20136;-72
2023/10/14 07:55:38;;;;;;;10.50;1.63;;;;;;;;;;5060990;28;20498;-73
2023/10/14 07:58:08;;;;;;;12.57;1.73;;;;;;;;;;5066256;28;20105;-73
2023/10/14 08:00:37;;;;;;;11.68;1.90;;;;;;;;;;5043770;28;20496;-72
2023/10/14 08:03:06;;;;;;;10.43;2.22;;;;;;;;;;5056205;28;20071;-73
2023/10/14 08:05:32;;;;;;;;;;;;;;;;;;5048796;28;20550;-72
2023/10/14 08:08:05;;;;;;;10.10;1.70;;;;;;;;;;5061189;28;19924;-73
2023/10/14 08:10:32;;;;;;;11.80;2.22;;;;;;;;;;5054065;28;20049;-72
2023/10/14 08:13:04;;;;;;;9.93;1.67;;;;;;;;;;5051493;28;20555;-74
2023/10/14 08:15:31;;;;;;;12.93;1.98;;;;;;;;;;5061702;28;20059;-73
2023/10/14 08:17:58;;;;;;;10.68;2.17;;;;;;;;;;5087920;28;20121;-73
2023/10/14 08:20:27;;;;;;;15.88;2.58;;;;;;;;;;5068522;28;20044;-74
2023/10/14 08:22:54;;;;;;;11.35;1.85;;;;;;;;;;5081817;28;20052;-73
2023/10/14 08:25:21;;;;;;;13.90;1.98;;;;;;;;;;5034608;28;20102;-73
2023/10/14 08:27:50;;;;;;;14.38;2.10;;;;;;;;;;5071840;28;20041;-72
2023/10/14 08:30:16;;;;;;;12.98;2.85;;;;;;;;;;5049156;28;20041;-72
2023/10/14 08:32:46;;;;;;;11.30;1.65;;;;;;;;;;5082216;28;20655;-72
2023/10/14 08:35:19;;;;;;;12.95;1.77;;;;;;;;;;5056831;28;20037;-73
2023/10/14 08:37:52;;;;;;;11.77;1.92;;;;;;;;;;5056535;28;20052;-73
2023/10/14 08:40:19;;;;;;;15.57;2.42;;;;;;;;;;5057370;28;20855;-74
2023/10/14 08:43:06;;;;;;;12.77;2.67;;;;;;;;;;5056118;28;20048;-73
2023/10/14 08:45:38;;;;;;;11.30;2.22;;;;;;;;;;5064498;28;20044;-74
2023/10/14 08:48:06;;;;;;;12.65;2.42;;;;;;;;;;5044431;28;20105;-73
2023/10/14 08:50:33;;;;;;;12.02;2.35;;;;;;;;;;5052136;28;20493;-74
2023/10/14 08:53:02;;;;;;;10.40;1.90;;;;;;;;;;5057555;28;20123;-75
2023/10/14 08:55:32;;;;;;;14.75;1.80;;;;;;;;;;5066984;28;20048;-75
2023/10/14 08:58:04;;;;;;;15.75;1.83;;;;;;;;;;5068233;28;20056;-74
2023/10/14 09:00:36;;;;;;;12.85;2.17;;;;;;;;;;5060681;28;20090;-74
2023/10/14 09:03:03;;;;;;;14.10;2.03;;;;;;;;;;5061614;28;20094;-74
2023/10/14 09:05:30;;;;;;;10.95;2.58;;;;;;;;;;5048799;28;20131;-74
2023/10/14 09:07:59;;;;;;;17.20;2.33;;;;;;;;;;5064255;28;20048;-74
2023/10/14 09:10:26;;;;;;;20.50;2.40;;;;;;;;;;5061156;28;20876;-74
2023/10/14 09:13:22;;;;;;;10.25;2.58;;;;;;;;;;5067081;28;20428;-74
2023/10/14 09:15:50;;;;;;;13.15;2.58;;;;;;;;;;5033466;28;20513;-74
2023/10/14 09:18:27;;;;;;;14.98;2.13;;;;;;;;;;5050242;28;20056;-74
2023/10/14 09:20:54;;;;;;;11.80;1.85;;;;;;;;;;5054899;28;20064;-73
2023/10/14 09:23:21;;;;;;;13.27;1.95;;;;;;;;;;5051453;28;20505;-75
2023/10/14 09:25:52;;;;;;;14.57;2.08;;;;;;;;;;5049695;28;20045;-74
2023/10/14 09:28:20;;;;;;;11.85;1.75;;;;;;;;;;5040466;28;20433;-74
2023/10/14 09:30:50;;;;;;;9.03;1.73;;;;;;;;;;5067631;28;20068;-72
2023/10/14 09:33:20;;;;;;;9.93;1.70;;;;;;;;;;5030449;28;20419;-72
2023/10/14 09:35:50;;;;;;;16.50;2.42;;;;;;;;;;5058687;28;20102;-74
2023/10/14 09:38:21;;;;;;;9.50;1.35;;;;;;;;;;5039463;28;20049;-73
2023/10/14 09:40:52;;;;;;;9.90;1.70;;;;;;;;;;5057170;28;20167;-73
2023/10/14 09:43:18;;;;;;;11.38;1.80;;;;;;;;;;5066475;28;20134;-73
2023/10/14 09:45:47;;;;;;;17.55;2.25;;;;;;;;;;5048329;28;20048;-74
2023/10/14 09:48:19;;;;;;;12.82;2.13;;;;;;;;;;5048537;28;20102;-73
2023/10/14 09:50:48;;;;;;;16.02;2.33;;;;;;;;;;5043408;28;20048;-76
2023/10/14 09:53:16;;;;;;;12.07;1.95;;;;;;;;;;5051280;28;20143;-72
2023/10/14 09:55:43;;;;;;;10.52;1.55;;;;;;;;;;5046215;28;20536;-73
2023/10/14 09:58:14;;;;;;;12.48;1.40;;;;;;;;;;5052499;28;20076;-74
2023/10/14 10:00:41;;;;;;;14.52;2.47;;;;;;;;;;5029199;28;20037;-74
2023/10/14 10:03:08;;;;;;;11.80;1.60;;;;;;;;;;5033241;28;20049;-74
2023/10/14 10:05:43;;;;;;;12.23;2.70;;;;;;;;;;5063335;28;20473;-75
2023/10/14 10:08:24;;;;;;;8.55;1.83;;;;;;;;;;5053809;28;20057;-74
2023/10/14 10:10:51;;;;;;;12.23;2.20;;;;;;;;;;5041527;28;20049;-73
2023/10/14 10:13:23;;;;;;;13.63;2.63;;;;;;;;;;5070826;28;20123;-74
2023/10/14 10:15:50;;;;;;;12.30;1.83;;;;;;;;;;5062643;28;20061;-75
2023/10/14 10:18:17;;;;;;;10.82;2.17;;;;;;;;;;5034663;28;20055;-75
2023/10/14 10:20:50;;;;;;;13.35;1.70;;;;;;;;;;5036783;28;20052;-75
2023/10/14 10:23:16;;;;;;;9.07;1.55;;;;;;;;;;5043850;28;20053;-75
2023/10/14 10:25:47;;;;;;;8.85;1.88;;;;;;;;;;5023989;28;20049;-73
2023/10/14 10:28:25;;;;;;;12.43;1.70;;;;;;;;;;5073860;28;20125;-72
2023/10/14 10:31:09;;;;;;;8.80;1.42;;;;;;;;;;5054939;28;20370;-75
2023/10/14 10:33:52;;;;;;;4.13;1.25;;;;;;;;;;5069604;28;20092;-76
2023/10/14 10:36:28;;;;;;;9.35;1.38;;;;;;;;;;5090538;28;20041;-74
2023/10/14 10:38:55;;;;;;;4.22;1.05;;;;;;;;;;5057974;28;20044;-74
2023/10/14 10:41:26;;;;;;;6.80;1.17;;;;;;;;;;5053548;28;20048;-73
2023/10/14 10:44:00;;;;;;;7.90;1.35;;;;;;;;;;5060560;28;20048;-74
2023/10/14 10:46:28;;;;;;;6.07;1.42;;;;;;;;;;5064279;28;20044;-73
2023/10/14 10:48:56;;;;;;;7.30;1.10;;;;;;;;;;5039737;28;20163;-73
2023/10/14 10:51:29;;;;;;;9.48;1.63;;;;;;;;;;5045537;28;20546;-73
2023/10/14 10:53:57;;;;;;;6.88;1.05;;;;;;;;;;5066754;28;20078;-74
2023/10/14 10:56:26;;;;;;;6.72;1.13;;;;;;;;;;5046465;28;20072;-73
2023/10/14 10:58:56;;;;;;;8.63;1.52;;;;;;;;;;5059188;28;20121;-74
2023/10/14 11:01:23;;;;;;;;;;;;;;;;;;5035204;28;20102;-74
2023/10/14 11:03:49;;;;;;;9.68;1.40;;;;;;;;;;5046433;28;19982;-73
2023/10/14 11:06:17;;;;;;;10.23;1.90;;;;;;;;;;5045360;28;20048;-73
2023/10/14 11:08:47;;;;;;;7.88;1.95;;;;;;;;;;5066496;28;20988;-73
2023/10/14 11:11:14;;;;;;;11.27;1.73;;;;;;;;;;5057983;28;20052;-74
2023/10/14 11:13:42;;;;;;;5.37;1.57;;;;;;;;;;5060495;28;20076;-73
2023/10/14 11:16:14;;;;;;;13.13;2.47;;;;;;;;;;5070891;28;20082;-73
2023/10/14 11:18:48;;;;;;;15.10;1.95;;;;;;;;;;5051827;28;20048;-73
2023/10/14 11:21:16;;;;;;;13.57;1.63;;;;;;;;;;5048058;28;20402;-73
2023/10/14 11:23:43;;;;;;;12.98;1.60;;;;;;;;;;5060410;28;20044;-73
2023/10/14 11:26:11;;;;;;;12.35;1.70;;;;;;;;;;5054017;28;20114;-73
2023/10/14 11:28:39;;;;;;;9.75;1.42;;;;;;;;;;5053020;28;20041;-72
2023/10/14 11:31:07;;;;;;;7.18;1.30;;;;;;;;;;5063043;28;20037;-73
2023/10/14 11:33:35;;;;;;;;;;;;;;;;;;5069623;28;20043;-72
2023/10/14 11:36:02;;;;;;;9.23;1.45;;;;;;;;;;5061278;28;19924;-72
2023/10/14 11:38:29;;;;;;;6.82;1.30;;;;;;;;;;5066011;28;20576;-73
2023/10/14 11:41:02;;;;;;;7.22;1.48;;;;;;;;;;5044607;28;20049;-74
2023/10/14 11:43:30;;;;;;;8.35;1.33;;;;;;;;;;5068343;28;20094;-73
2023/10/14 11:45:56;;;;;;;10.57;1.20;;;;;;;;;;5044614;28;20040;-73
2023/10/14 11:48:25;;;;;;;6.47;1.40;;;;;;;;;;5045120;28;20314;-73
2023/10/14 11:50:58;;;;;;;3.80;0.90;;;;;;;;;;5043837;28;20122;-75
2023/10/14 11:53:27;;;;;;;8.05;1.33;;;;;;;;;;5041099;28;20746;-72
2023/10/14 11:55:58;;;;;;;4.75;0.90;;;;;;;;;;5052366;28;20106;-72
2023/10/14 11:58:30;;;;;;;4.90;0.88;;;;;;;;;;5038873;28;20511;-73
2023/10/14 12:00:57;;;;;;;6.18;1.30;;;;;;;;;;5057855;28;20487;-73
2023/10/14 12:03:26;;;;;;;7.43;2.45;;;;;;;;;;5044687;28;20056;-74
2023/10/14 12:05:57;;;;;;;9.02;1.60;;;;;;;;;;5054727;28;20056;-73
2023/10/14 12:08:25;;;;;;;7.07;1.42;;;;;;;;;;5062588;28;20056;-73
2023/10/14 12:10:52;;;;;;;11.27;2.10;;;;;;;;;;5042485;28;20053;-73
2023/10/14 12:13:19;;;;;;;10.52;1.75;;;;;;;;;;5044589;28;20060;-73
2023/10/14 12:15:56;;;;;;;14.00;1.73;;;;;;;;;;5040047;28;20059;-73
2023/10/14 12:18:23;;;;;;;7.20;1.30;;;;;;;;;;5037565;28;20809;-74
2023/10/14 12:20:50;;;;;;;9.32;1.90;;;;;;;;;;5044702;28;20163;-74
2023/10/14 12:23:19;;;;;;;9.10;1.63;;;;;;;;;;5054863;28;20441;-74
2023/10/14 12:25:46;;;;;;;9.00;1.70;;;;;;;;;;5042666;28;20048;-73
2023/10/14 12:28:17;;;;;;;12.18;1.80;;;;;;;;;;5054812;28;20080;-73
2023/10/14 12:30:46;;;;;;;6.72;1.40;;;;;;;;;;5065514;28;20040;-73
2023/10/14 12:33:19;;;;;;;;;;;;;;;;;;5052526;28;20079;-73
2023/10/14 12:35:47;;;;;;;6.95;1.33;;;;;;;;;;5066153;28;19920;-73
2023/10/14 12:38:15;;;;;;;;;;;;;;;;;;5043743;28;20064;-73
2023/10/14 12:40:44;;;;;;;8.00;1.50;;;;;;;;;;5062201;28;19930;-73
2023/10/14 12:43:15;;;;;;;7.45;1.30;;;;;;;;;;5078765;28;20140;-73
2023/10/14 12:45:42;;;;;;;7.80;1.40;;;;;;;;;;5056709;28;20048;-73
2023/10/14 12:48:09;;;;;;;6.70;1.30;;;;;;;;;;5070358;28;20060;-73
2023/10/14 12:50:46;;;;;;;9.40;1.75;;;;;;;;;;5045178;28;20045;-74
2023/10/14 12:53:13;;;;;;;10.45;1.58;;;;;;;;;;5043276;28;20052;-75
2023/10/14 12:55:44;;;;;;;8.57;1.20;;;;;;;;;;5046167;28;20048;-73
2023/10/14 12:58:18;;;;;;;9.20;1.50;;;;;;;;;;5050689;28;20052;-74
2023/10/14 13:00:45;;;;;;;6.75;1.15;;;;;;;;;;5047591;28;20044;-75
2023/10/14 13:03:13;;;;;;;8.27;1.40;;;;;;;;;;5056296;28;20421;-74
2023/10/14 13:05:46;;;;;;;7.78;1.50;;;;;;;;;;5067916;28;20056;-73
2023/10/14 13:08:18;;;;;;;6.90;1.42;;;;;;;;;;5051362;28;20060;-74
2023/10/14 13:10:45;;;;;;;12.02;1.90;;;;;;;;;;5052509;28;20051;-72
2023/10/14 13:13:13;;;;;;;7.20;1.52;;;;;;;;;;5042963;28;20114;-73
2023/10/14 13:15:40;;;;;;;5.65;1.30;;;;;;;;;;5045685;28;20048;-73
2023/10/14 13:18:07;;;;;;;6.45;1.52;;;;;;;;;;5058027;28;20059;-73
2023/10/14 13:20:35;;;;;;;6.93;1.77;;;;;;;;;;5049198;28;20076;-73
2023/10/14 13:23:04;;;;;;;6.70;1.88;;;;;;;;;;5057755;28;20071;-73
2023/10/14 13:25:36;;;;;;;10.60;1.77;;;;;;;;;;5045122;28;20133;-73
2023/10/14 13:28:08;;;;;;;8.82;1.67;;;;;;;;;;5042466;28;20107;-73
2023/10/14 13:30:35;;;;;;;8.40;1.90;;;;;;;;;;5040200;28;20421;-73
2023/10/14 13:33:03;;;;;;;9.07;1.45;;;;;;;;;;5063820;28;20581;-73
2023/10/14 13:35:31;;;;;;;9.23;1.95;;;;;;;;;;5054444;28;20049;-73
2023/10/14 13:38:00;;;;;;;9.90;1.65;;;;;;;;;;5049795;28;20048;-73
2023/10/14 13:40:26;;;;;;;9.07;1.38;;;;;;;;;;5063052;28;20104;-73
2023/10/14 13:43:08;;;;;;;6.55;1.05;;;;;;;;;;5045495;28;20059;-74
2023/10/14 13:45:41;;;;;;;7.80;1.23;;;;;;;;;;5058868;28;20460;-75
2023/10/14 13:48:08;;;;;;;9.52;1.63;;;;;;;;;;5057196;28;20519;-76
2023/10/14 13:50:39;;;;;;;14.10;1.65;;;;;;;;;;5057545;28;20071;-76
2023/10/14 13:53:09;;;;;;;9.77;1.75;;;;;;;;;;5036677;28;20040;-76
2023/10/14 13:55:39;;;;;;;7.75;1.50;;;;;;;;;;5056161;28;20084;-74
2023/10/14 13:58:11;;;;;;;9.57;1.35;;;;;;;;;;5048080;28;20060;-76
2023/10/14 14:00:42;;;;;;;7.85;1.35;;;;;;;;;;5034898;28;20563;-74
2023/10/14 14:03:12;;;;;;;7.32;1.20;;;;;;;;;;5060347;28;20429;-75
2023/10/14 14:05:40;;;;;;;11.93;1.65;;;;;;;;;;5051719;28;20090;-75
2023/10/14 14:08:07;;;;;;;8.93;1.23;;;;;;;;;;5064645;28;20126;-73
2023/10/14 14:10:34;;;;;;;10.07;1.52;;;;;;;;;;5054129;28;20041;-72
2023/10/14 14:13:03;;;;;;;9.15;1.83;;;;;;;;;;5042012;28;20567;-73
2023/10/14 14:15:31;;;;;;;7.47;1.42;;;;;;;;;;5071164;28;20575;-73
2023/10/14 14:17:58;;;;;;;7.15;1.48;;;;;;;;;;5053518;28;20044;-74
2023/10/14 14:20:25;;;;;;;8.23;1.42;;;;;;;;;;5065548;28;20097;-73
2023/10/14 14:22:55;;;;;;;7.93;1.70;;;;;;;;;;5063855;28;20444;-73
2023/10/14 14:25:25;;;;;;;6.00;1.13;;;;;;;;;;5042703;28;20131;-73
2023/10/14 14:27:53;;;;;;;7.35;0.95;;;;;;;;;;5044886;28;20724;-73
2023/10/14 14:30:27;;;;;;;8.45;1.27;;;;;;;;;;5066314;28;20055;-74
2023/10/14 14:32:57;;;;;;;8.40;1.95;;;;;;;;;;5050082;28;20413;-74
2023/10/14 14:35:26;;;;;;;8.10;1.42;;;;;;;;;;5044499;28;20504;-74
2023/10/14 14:37:53;;;;;;;10.15;1.73;;;;;;;;;;5056409;28;20159;-73
2023/10/14 14:40:31;;;;;;;6.00;1.15;;;;;;;;;;5056207;28;20061;-75
2023/10/14 14:42:59;;;;;;;6.75;1.30;;;;;;;;;;5065500;28;20064;-73
2023/10/14 14:45:27;;;;;;;7.68;1.33;;;;;;;;;;5061082;28;20044;-73
2023/10/14 14:47:53;;;;;;;6.82;1.52;;;;;;;;;;5045529;28;20056;-73
2023/10/14 14:50:23;;;;;;;4.32;1.35;;;;;;;;;;5061299;28;20048;-72
2023/10/14 14:52:49;;;;;;;10.45;1.42;;;;;;;;;;5040560;28;20429;-74
2023/10/14 14:55:17;;;;;;;9.70;1.60;;;;;;;;;;5047512;28;20121;-73
2023/10/14 14:57:49;;;;;;;5.35;1.30;;;;;;;;;;5060979;28;20044;-73
2023/10/14 15:00:28;;;;;;;5.97;1.15;;;;;;;;;;5037804;28;20072;-73
2023/10/14 15:02:55;;;;;;;11.00;1.67;;;;;;;;;;5034589;28;20048;-73
2023/10/14 15:05:23;;;;;;;9.70;1.73;;;;;;;;;;5062795;28;20055;-73
2023/10/14 15:07:49;;;;;;;6.22;1.30;;;;;;;;;;5064350;28;20071;-73
2023/10/14 15:10:15;;;;;;;8.82;1.80;;;;;;;;;;5057138;28;20056;-72
2023/10/14 15:12:43;;;;;;;10.00;1.92;;;;;;;;;;5064672;28;20055;-73
2023/10/14 15:15:09;;;;;;;10.82;1.52;;;;;;;;;;5060956;28;20102;-73
2023/10/14 15:17:38;;;;;;;8.95;1.45;;;;;;;;;;5059392;28;20421;-73
2023/10/14 15:20:05;;;;;;;10.80;2.33;;;;;;;;;;5033533;28;20047;-73
2023/10/14 15:22:32;;;;;;;13.32;2.33;;;;;;;;;;5058622;28;20420;-74
2023/10/14 15:24:59;;;;;;;8.70;1.52;;;;;;;;;;5061368;28;20044;-73
2023/10/14 15:27:26;;;;;;;12.20;2.33;;;;;;;;;;5052077;28;20076;-73
2023/10/14 15:29:52;;;;;;;12.80;2.30;;;;;;;;;;5069447;28;20563;-73